sensor_id;sensor_type;location;lat;lon;timestamp;P1;durP1;ratioP1;P2;durP2;ratioP2
3070;SDS011;1546;47.208;9.038;2023-03-31T00:00:11;12.55;;;7.70;;
3070;SDS011;1546;47.208;9.038;2023-03-31T00:02:40;11.20;;;7.13;;
3070;SDS011;1546;47.208;9.038;2023-03-31T00:05:07;16.85;;;8.32;;
3070;SDS011;1546;47.208;9.038;2023-03-31T00:07:34;9.32;;;5.60;;
3070;SDS011;1546;47.208;9.038;2023-03-31T00:10:03;10.68;;;5.53;;
3070;SDS011;1546;47.208;9.038;2023-03-31T00:12:30;14.68;;;6.10;;
3070;SDS011;1546;47.208;9.038;2023-03-31T00:14:57;12.13;;;5.95;;
3070;SDS011;1546;47.208;9.038;2023-03-31T00:17:24;10.13;;;5.80;;
3070;SDS011;1546;47.208;9.038;2023-03-31T00:19:52;9.70;;;5.40;;
3070;SDS011;1546;47.208;9.038;2023-03-31T00:22:24;8.88;;;5.38;;
3070;SDS011;1546;47.208;9.038;2023-03-31T00:24:52;16.98;;;5.90;;
3070;SDS011;1546;47.208;9.038;2023-03-31T00:27:19;9.50;;;5.55;;
3070;SDS011;1546;47.208;9.038;2023-03-31T00:29:46;10.73;;;5.20;;
3070;SDS011;1546;47.208;9.038;2023-03-31T00:32:14;7.60;;;5.40;;
3070;SDS011;1546;47.208;9.038;2023-03-31T00:34:41;12.38;;;5.90;;
3070;SDS011;1546;47.208;9.038;2023-03-31T00:37:10;10.90;;;6.25;;
3070;SDS011;1546;47.208;9.038;2023-03-31T00:39:38;11.40;;;7.45;;
3070;SDS011;1546;47.208;9.038;2023-03-31T00:42:08;8.63;;;5.30;;
3070;SDS011;1546;47.208;9.038;2023-03-31T00:44:38;10.90;;;6.15;;
3070;SDS011;1546;47.208;9.038;2023-03-31T00:47:27;11.30;;;7.15;;
3070;SDS011;1546;47.208;9.038;2023-03-31T00:49:55;11.75;;;6.55;;
3070;SDS011;1546;47.208;9.038;2023-03-31T00:52:26;11.80;;;6.85;;
3070;SDS011;1546;47.208;9.038;2023-03-31T00:55:00;9.82;;;5.80;;
3070;SDS011;1546;47.208;9.038;2023-03-31T00:57:32;13.05;;;8.27;;
3070;SDS011;1546;47.208;9.038;2023-03-31T01:00:04;9.50;;;5.60;;
3070;SDS011;1546;47.208;9.038;2023-03-31T01:02:38;12.18;;;4.88;;
3070;SDS011;1546;47.208;9.038;2023-03-31T01:05:05;8.23;;;5.03;;
3070;SDS011;1546;47.208;9.038;2023-03-31T01:07:36;9.77;;;6.22;;
3070;SDS011;1546;47.208;9.038;2023-03-31T01:10:08;10.30;;;5.95;;
3070;SDS011;1546;47.208;9.038;2023-03-31T01:12:36;7.07;;;4.90;;
3070;SDS011;1546;47.208;9.038;2023-03-31T01:15:05;10.23;;;6.43;;
3070;SDS011;1546;47.208;9.038;2023-03-31T01:17:33;9.18;;;5.80;;
3070;SDS011;1546;47.208;9.038;2023-03-31T01:20:03;10.77;;;6.32;;
3070;SDS011;1546;47.208;9.038;2023-03-31T01:28:53;12.45;;;5.00;;
3070;SDS011;1546;47.208;9.038;2023-03-31T01:37:44;14.90;;;7.10;;
3070;SDS011;1546;47.208;9.038;2023-03-31T01:40:49;8.77;;;5.63;;
3070;SDS011;1546;47.208;9.038;2023-03-31T01:43:36;9.65;;;6.20;;
3070;SDS011;1546;47.208;9.038;2023-03-31T01:46:13;8.88;;;5.53;;
3070;SDS011;1546;47.208;9.038;2023-03-31T01:48:47;8.45;;;5.43;;
3070;SDS011;1546;47.208;9.038;2023-03-31T01:51:21;9.27;;;5.75;;
3070;SDS011;1546;47.208;9.038;2023-03-31T01:53:59;13.93;;;6.50;;
3070;SDS011;1546;47.208;9.038;2023-03-31T01:56:37;10.10;;;4.80;;
3070;SDS011;1546;47.208;9.038;2023-03-31T01:59:07;8.68;;;4.97;;
3070;SDS011;1546;47.208;9.038;2023-03-31T02:01:38;12.65;;;6.00;;
3070;SDS011;1546;47.208;9.038;2023-03-31T02:04:12;9.60;;;6.30;;
3070;SDS011;1546;47.208;9.038;2023-03-31T02:06:43;8.90;;;5.50;;
3070;SDS011;1546;47.208;9.038;2023-03-31T02:09:18;9.43;;;4.55;;
3070;SDS011;1546;47.208;9.038;2023-03-31T02:11:49;9.85;;;5.03;;
3070;SDS011;1546;47.208;9.038;2023-03-31T02:14:20;10.13;;;5.47;;
3070;SDS011;1546;47.208;9.038;2023-03-31T02:16:50;10.10;;;5.85;;
3070;SDS011;1546;47.208;9.038;2023-03-31T02:19:24;9.65;;;5.53;;
3070;SDS011;1546;47.208;9.038;2023-03-31T02:21:54;8.25;;;5.30;;
3070;SDS011;1546;47.208;9.038;2023-03-31T02:24:22;9.70;;;6.20;;
3070;SDS011;1546;47.208;9.038;2023-03-31T02:26:54;7.25;;;4.40;;
3070;SDS011;1546;47.208;9.038;2023-03-31T02:29:26;10.05;;;5.70;;
3070;SDS011;1546;47.208;9.038;2023-03-31T02:31:55;8.60;;;5.07;;
3070;SDS011;1546;47.208;9.038;2023-03-31T02:34:26;9.10;;;6.60;;
3070;SDS011;1546;47.208;9.038;2023-03-31T02:36:53;10.88;;;4.55;;
3070;SDS011;1546;47.208;9.038;2023-03-31T02:39:20;9.00;;;5.13;;
3070;SDS011;1546;47.208;9.038;2023-03-31T02:41:51;11.32;;;6.13;;
3070;SDS011;1546;47.208;9.038;2023-03-31T02:44:19;9.15;;;5.43;;
3070;SDS011;1546;47.208;9.038;2023-03-31T02:46:46;10.65;;;5.45;;
3070;SDS011;1546;47.208;9.038;2023-03-31T02:49:14;9.73;;;5.55;;
3070;SDS011;1546;47.208;9.038;2023-03-31T02:51:55;10.45;;;6.05;;
3070;SDS011;1546;47.208;9.038;2023-03-31T02:54:42;14.15;;;7.18;;
3070;SDS011;1546;47.208;9.038;2023-03-31T02:57:25;9.85;;;5.72;;
3070;SDS011;1546;47.208;9.038;2023-03-31T03:00:13;13.85;;;5.18;;
3070;SDS011;1546;47.208;9.038;2023-03-31T03:02:52;14.18;;;7.53;;
3070;SDS011;1546;47.208;9.038;2023-03-31T03:05:35;10.52;;;5.50;;
3070;SDS011;1546;47.208;9.038;2023-03-31T03:08:14;8.82;;;5.20;;
3070;SDS011;1546;47.208;9.038;2023-03-31T03:10:54;8.38;;;5.00;;
3070;SDS011;1546;47.208;9.038;2023-03-31T03:13:29;12.00;;;5.90;;
3070;SDS011;1546;47.208;9.038;2023-03-31T03:16:04;10.45;;;5.32;;
3070;SDS011;1546;47.208;9.038;2023-03-31T03:18:37;9.55;;;5.20;;
3070;SDS011;1546;47.208;9.038;2023-03-31T03:21:05;10.32;;;5.97;;
3070;SDS011;1546;47.208;9.038;2023-03-31T03:23:31;11.32;;;5.78;;
3070;SDS011;1546;47.208;9.038;2023-03-31T03:25:58;8.93;;;5.15;;
3070;SDS011;1546;47.208;9.038;2023-03-31T03:28:25;12.85;;;5.75;;
3070;SDS011;1546;47.208;9.038;2023-03-31T03:30:52;10.82;;;5.47;;
3070;SDS011;1546;47.208;9.038;2023-03-31T03:33:20;9.90;;;4.95;;
3070;SDS011;1546;47.208;9.038;2023-03-31T03:35:49;10.75;;;6.75;;
3070;SDS011;1546;47.208;9.038;2023-03-31T03:38:15;14.38;;;5.47;;
3070;SDS011;1546;47.208;9.038;2023-03-31T03:40:42;10.95;;;5.30;;
3070;SDS011;1546;47.208;9.038;2023-03-31T03:43:09;11.90;;;5.22;;
3070;SDS011;1546;47.208;9.038;2023-03-31T03:45:36;10.27;;;5.15;;
3070;SDS011;1546;47.208;9.038;2023-03-31T03:48:03;9.20;;;5.05;;
3070;SDS011;1546;47.208;9.038;2023-03-31T03:50:31;8.45;;;5.25;;
3070;SDS011;1546;47.208;9.038;2023-03-31T03:53:01;8.82;;;5.40;;
3070;SDS011;1546;47.208;9.038;2023-03-31T03:55:28;11.88;;;5.38;;
3070;SDS011;1546;47.208;9.038;2023-03-31T03:57:55;8.77;;;6.25;;
3070;SDS011;1546;47.208;9.038;2023-03-31T04:00:22;11.40;;;5.95;;
3070;SDS011;1546;47.208;9.038;2023-03-31T04:02:49;12.52;;;5.95;;
3070;SDS011;1546;47.208;9.038;2023-03-31T04:05:15;10.13;;;4.82;;
3070;SDS011;1546;47.208;9.038;2023-03-31T04:07:44;8.00;;;4.90;;
3070;SDS011;1546;47.208;9.038;2023-03-31T04:10:11;12.07;;;5.80;;
3070;SDS011;1546;47.208;9.038;2023-03-31T04:12:37;24.30;;;5.70;;
3070;SDS011;1546;47.208;9.038;2023-03-31T04:15:05;12.43;;;7.10;;
3070;SDS011;1546;47.208;9.038;2023-03-31T04:17:32;8.18;;;5.47;;
3070;SDS011;1546;47.208;9.038;2023-03-31T04:20:01;10.32;;;4.93;;
3070;SDS011;1546;47.208;9.038;2023-03-31T04:22:31;9.15;;;5.85;;
3070;SDS011;1546;47.208;9.038;2023-03-31T04:25:01;8.02;;;5.20;;
3070;SDS011;1546;47.208;9.038;2023-03-31T04:27:28;12.48;;;5.07;;
3070;SDS011;1546;47.208;9.038;2023-03-31T04:29:57;8.40;;;3.95;;
3070;SDS011;1546;47.208;9.038;2023-03-31T04:32:24;8.07;;;4.95;;
3070;SDS011;1546;47.208;9.038;2023-03-31T04:34:52;9.32;;;5.30;;
3070;SDS011;1546;47.208;9.038;2023-03-31T04:37:27;8.80;;;4.43;;
3070;SDS011;1546;47.208;9.038;2023-03-31T04:39:58;9.00;;;4.07;;
3070;SDS011;1546;47.208;9.038;2023-03-31T04:42:33;9.23;;;4.47;;
3070;SDS011;1546;47.208;9.038;2023-03-31T04:45:00;12.45;;;6.05;;
3070;SDS011;1546;47.208;9.038;2023-03-31T04:47:27;8.70;;;3.90;;
3070;SDS011;1546;47.208;9.038;2023-03-31T04:49:53;8.15;;;5.10;;
3070;SDS011;1546;47.208;9.038;2023-03-31T04:52:20;7.97;;;4.20;;
3070;SDS011;1546;47.208;9.038;2023-03-31T04:54:47;8.05;;;4.70;;
3070;SDS011;1546;47.208;9.038;2023-03-31T04:57:14;7.13;;;3.90;;
3070;SDS011;1546;47.208;9.038;2023-03-31T04:59:42;10.77;;;4.30;;
3070;SDS011;1546;47.208;9.038;2023-03-31T05:02:10;9.73;;;4.00;;
3070;SDS011;1546;47.208;9.038;2023-03-31T05:04:36;13.02;;;4.00;;
3070;SDS011;1546;47.208;9.038;2023-03-31T05:07:03;9.00;;;4.97;;
3070;SDS011;1546;47.208;9.038;2023-03-31T05:09:30;7.53;;;3.90;;
3070;SDS011;1546;47.208;9.038;2023-03-31T05:11:57;9.05;;;4.40;;
3070;SDS011;1546;47.208;9.038;2023-03-31T05:14:24;6.50;;;2.50;;
3070;SDS011;1546;47.208;9.038;2023-03-31T05:16:53;7.93;;;3.42;;
3070;SDS011;1546;47.208;9.038;2023-03-31T05:19:21;9.93;;;4.13;;
3070;SDS011;1546;47.208;9.038;2023-03-31T05:21:48;8.50;;;5.15;;
3070;SDS011;1546;47.208;9.038;2023-03-31T05:24:15;9.60;;;5.15;;
3070;SDS011;1546;47.208;9.038;2023-03-31T05:26:42;16.25;;;4.80;;
3070;SDS011;1546;47.208;9.038;2023-03-31T05:29:13;7.20;;;4.13;;
3070;SDS011;1546;47.208;9.038;2023-03-31T05:31:41;5.35;;;2.60;;
3070;SDS011;1546;47.208;9.038;2023-03-31T05:34:09;8.05;;;2.47;;
3070;SDS011;1546;47.208;9.038;2023-03-31T05:36:36;6.32;;;1.98;;
3070;SDS011;1546;47.208;9.038;2023-03-31T05:39:03;7.57;;;3.97;;
3070;SDS011;1546;47.208;9.038;2023-03-31T05:41:31;5.10;;;2.42;;
3070;SDS011;1546;47.208;9.038;2023-03-31T05:43:57;4.40;;;1.98;;
3070;SDS011;1546;47.208;9.038;2023-03-31T05:46:26;7.75;;;2.38;;
3070;SDS011;1546;47.208;9.038;2023-03-31T05:48:52;4.85;;;2.40;;
3070;SDS011;1546;47.208;9.038;2023-03-31T05:51:21;5.82;;;2.50;;
3070;SDS011;1546;47.208;9.038;2023-03-31T05:53:49;5.65;;;2.40;;
3070;SDS011;1546;47.208;9.038;2023-03-31T05:56:15;6.25;;;2.20;;
3070;SDS011;1546;47.208;9.038;2023-03-31T05:58:42;6.60;;;2.50;;
3070;SDS011;1546;47.208;9.038;2023-03-31T06:01:10;5.15;;;1.95;;
3070;SDS011;1546;47.208;9.038;2023-03-31T06:03:38;7.32;;;2.60;;
3070;SDS011;1546;47.208;9.038;2023-03-31T06:06:06;5.68;;;2.92;;
3070;SDS011;1546;47.208;9.038;2023-03-31T06:08:35;6.28;;;2.80;;
3070;SDS011;1546;47.208;9.038;2023-03-31T06:11:03;5.95;;;3.17;;
3070;SDS011;1546;47.208;9.038;2023-03-31T06:13:31;4.95;;;2.50;;
3070;SDS011;1546;47.208;9.038;2023-03-31T06:15:58;5.80;;;2.35;;
3070;SDS011;1546;47.208;9.038;2023-03-31T06:18:26;5.22;;;2.13;;
3070;SDS011;1546;47.208;9.038;2023-03-31T06:20:54;13.40;;;2.20;;
3070;SDS011;1546;47.208;9.038;2023-03-31T06:23:22;4.50;;;2.25;;
3070;SDS011;1546;47.208;9.038;2023-03-31T06:25:51;6.40;;;1.70;;
3070;SDS011;1546;47.208;9.038;2023-03-31T06:28:18;4.80;;;1.75;;
3070;SDS011;1546;47.208;9.038;2023-03-31T06:30:46;9.65;;;1.90;;
3070;SDS011;1546;47.208;9.038;2023-03-31T06:33:13;5.82;;;1.90;;
3070;SDS011;1546;47.208;9.038;2023-03-31T06:35:40;6.05;;;2.30;;
3070;SDS011;1546;47.208;9.038;2023-03-31T06:38:07;6.05;;;2.00;;
3070;SDS011;1546;47.208;9.038;2023-03-31T06:40:34;5.15;;;2.00;;
3070;SDS011;1546;47.208;9.038;2023-03-31T06:43:02;5.07;;;1.85;;
3070;SDS011;1546;47.208;9.038;2023-03-31T06:45:29;5.38;;;2.15;;
3070;SDS011;1546;47.208;9.038;2023-03-31T06:47:55;5.53;;;2.67;;
3070;SDS011;1546;47.208;9.038;2023-03-31T06:50:22;6.50;;;1.75;;
3070;SDS011;1546;47.208;9.038;2023-03-31T06:52:49;4.72;;;2.15;;
3070;SDS011;1546;47.208;9.038;2023-03-31T06:55:19;5.68;;;2.63;;
3070;SDS011;1546;47.208;9.038;2023-03-31T06:57:46;4.85;;;2.13;;
3070;SDS011;1546;47.208;9.038;2023-03-31T07:00:14;5.15;;;2.10;;
3070;SDS011;1546;47.208;9.038;2023-03-31T07:02:42;4.40;;;1.90;;
3070;SDS011;1546;47.208;9.038;2023-03-31T07:05:09;4.13;;;1.73;;
3070;SDS011;1546;47.208;9.038;2023-03-31T07:07:35;5.72;;;2.25;;
3070;SDS011;1546;47.208;9.038;2023-03-31T07:10:02;6.78;;;2.75;;
3070;SDS011;1546;47.208;9.038;2023-03-31T07:12:31;5.93;;;2.20;;
3070;SDS011;1546;47.208;9.038;2023-03-31T07:14:58;8.23;;;2.53;;
3070;SDS011;1546;47.208;9.038;2023-03-31T07:17:26;5.50;;;2.08;;
3070;SDS011;1546;47.208;9.038;2023-03-31T07:19:53;6.20;;;2.60;;
3070;SDS011;1546;47.208;9.038;2023-03-31T07:22:19;5.93;;;2.60;;
3070;SDS011;1546;47.208;9.038;2023-03-31T07:24:46;4.70;;;2.28;;
3070;SDS011;1546;47.208;9.038;2023-03-31T07:27:13;4.18;;;1.77;;
3070;SDS011;1546;47.208;9.038;2023-03-31T07:29:40;6.13;;;2.10;;
3070;SDS011;1546;47.208;9.038;2023-03-31T07:32:07;7.97;;;2.42;;
3070;SDS011;1546;47.208;9.038;2023-03-31T07:34:35;7.70;;;2.67;;
3070;SDS011;1546;47.208;9.038;2023-03-31T07:37:03;7.93;;;3.00;;
3070;SDS011;1546;47.208;9.038;2023-03-31T07:39:30;5.20;;;2.80;;
3070;SDS011;1546;47.208;9.038;2023-03-31T07:41:57;6.90;;;2.85;;
3070;SDS011;1546;47.208;9.038;2023-03-31T07:44:23;8.27;;;3.05;;
3070;SDS011;1546;47.208;9.038;2023-03-31T07:46:51;5.68;;;2.38;;
3070;SDS011;1546;47.208;9.038;2023-03-31T07:49:17;5.78;;;2.88;;
3070;SDS011;1546;47.208;9.038;2023-03-31T07:51:46;4.88;;;2.50;;
3070;SDS011;1546;47.208;9.038;2023-03-31T07:54:12;8.57;;;3.10;;
3070;SDS011;1546;47.208;9.038;2023-03-31T07:56:39;5.68;;;2.85;;
3070;SDS011;1546;47.208;9.038;2023-03-31T07:59:06;7.97;;;3.85;;
3070;SDS011;1546;47.208;9.038;2023-03-31T08:01:33;7.50;;;4.57;;
3070;SDS011;1546;47.208;9.038;2023-03-31T08:04:00;6.45;;;3.45;;
3070;SDS011;1546;47.208;9.038;2023-03-31T08:06:28;9.20;;;3.78;;
3070;SDS011;1546;47.208;9.038;2023-03-31T08:08:56;12.27;;;4.43;;
3070;SDS011;1546;47.208;9.038;2023-03-31T08:11:23;6.75;;;3.67;;
3070;SDS011;1546;47.208;9.038;2023-03-31T08:13:51;12.55;;;6.07;;
3070;SDS011;1546;47.208;9.038;2023-03-31T08:16:18;10.45;;;4.20;;
3070;SDS011;1546;47.208;9.038;2023-03-31T08:18:44;9.20;;;4.75;;
3070;SDS011;1546;47.208;9.038;2023-03-31T08:21:11;8.27;;;4.65;;
3070;SDS011;1546;47.208;9.038;2023-03-31T08:23:38;9.20;;;4.13;;
3070;SDS011;1546;47.208;9.038;2023-03-31T08:26:08;10.75;;;4.50;;
3070;SDS011;1546;47.208;9.038;2023-03-31T08:28:36;11.20;;;4.82;;
3070;SDS011;1546;47.208;9.038;2023-03-31T08:31:03;11.23;;;6.18;;
3070;SDS011;1546;47.208;9.038;2023-03-31T08:33:30;7.88;;;5.38;;
3070;SDS011;1546;47.208;9.038;2023-03-31T08:36:00;9.13;;;5.38;;
3070;SDS011;1546;47.208;9.038;2023-03-31T08:38:27;9.73;;;4.00;;
3070;SDS011;1546;47.208;9.038;2023-03-31T08:40:57;9.38;;;3.97;;
3070;SDS011;1546;47.208;9.038;2023-03-31T08:43:26;5.85;;;3.45;;
3070;SDS011;1546;47.208;9.038;2023-03-31T08:45:57;8.85;;;3.63;;
3070;SDS011;1546;47.208;9.038;2023-03-31T08:48:26;7.15;;;3.80;;
3070;SDS011;1546;47.208;9.038;2023-03-31T08:50:56;7.60;;;3.40;;
3070;SDS011;1546;47.208;9.038;2023-03-31T08:53:28;9.75;;;4.75;;
3070;SDS011;1546;47.208;9.038;2023-03-31T08:55:58;10.80;;;5.38;;
3070;SDS011;1546;47.208;9.038;2023-03-31T08:58:32;10.95;;;6.55;;
3070;SDS011;1546;47.208;9.038;2023-03-31T09:01:06;9.35;;;4.80;;
3070;SDS011;1546;47.208;9.038;2023-03-31T09:03:42;9.80;;;4.82;;
3070;SDS011;1546;47.208;9.038;2023-03-31T09:06:20;9.27;;;5.10;;
3070;SDS011;1546;47.208;9.038;2023-03-31T09:08:52;8.60;;;4.60;;
3070;SDS011;1546;47.208;9.038;2023-03-31T09:11:28;9.75;;;4.53;;
3070;SDS011;1546;47.208;9.038;2023-03-31T09:14:14;9.32;;;5.55;;
3070;SDS011;1546;47.208;9.038;2023-03-31T09:16:51;6.93;;;4.30;;
3070;SDS011;1546;47.208;9.038;2023-03-31T09:19:29;9.35;;;5.47;;
3070;SDS011;1546;47.208;9.038;2023-03-31T09:22:00;9.48;;;5.57;;
3070;SDS011;1546;47.208;9.038;2023-03-31T09:24:29;10.20;;;6.05;;
3070;SDS011;1546;47.208;9.038;2023-03-31T09:26:59;16.08;;;5.25;;
3070;SDS011;1546;47.208;9.038;2023-03-31T09:29:30;8.75;;;4.53;;
3070;SDS011;1546;47.208;9.038;2023-03-31T09:32:08;7.68;;;4.18;;
3070;SDS011;1546;47.208;9.038;2023-03-31T09:34:39;7.60;;;4.18;;
3070;SDS011;1546;47.208;9.038;2023-03-31T09:37:07;6.60;;;3.88;;
3070;SDS011;1546;47.208;9.038;2023-03-31T09:39:34;8.32;;;4.95;;
3070;SDS011;1546;47.208;9.038;2023-03-31T09:42:02;10.13;;;5.22;;
3070;SDS011;1546;47.208;9.038;2023-03-31T09:44:33;9.35;;;4.10;;
3070;SDS011;1546;47.208;9.038;2023-03-31T09:47:04;7.43;;;4.75;;
3070;SDS011;1546;47.208;9.038;2023-03-31T09:49:35;7.10;;;4.03;;
3070;SDS011;1546;47.208;9.038;2023-03-31T09:52:03;10.52;;;3.90;;
3070;SDS011;1546;47.208;9.038;2023-03-31T09:54:36;7.75;;;4.20;;
3070;SDS011;1546;47.208;9.038;2023-03-31T09:57:12;7.90;;;4.07;;
3070;SDS011;1546;47.208;9.038;2023-03-31T09:59:42;7.35;;;3.67;;
3070;SDS011;1546;47.208;9.038;2023-03-31T10:02:20;6.53;;;3.83;;
3070;SDS011;1546;47.208;9.038;2023-03-31T10:05:00;7.25;;;3.65;;
3070;SDS011;1546;47.208;9.038;2023-03-31T10:07:27;8.02;;;3.90;;
3070;SDS011;1546;47.208;9.038;2023-03-31T10:09:54;9.75;;;3.97;;
3070;SDS011;1546;47.208;9.038;2023-03-31T10:12:22;9.60;;;4.18;;
3070;SDS011;1546;47.208;9.038;2023-03-31T10:15:01;9.27;;;4.70;;
3070;SDS011;1546;47.208;9.038;2023-03-31T10:17:37;7.65;;;4.18;;
3070;SDS011;1546;47.208;9.038;2023-03-31T10:20:16;8.75;;;4.30;;
3070;SDS011;1546;47.208;9.038;2023-03-31T10:22:46;6.78;;;3.60;;
3070;SDS011;1546;47.208;9.038;2023-03-31T10:25:14;6.30;;;3.30;;
3070;SDS011;1546;47.208;9.038;2023-03-31T10:27:43;8.40;;;4.10;;
3070;SDS011;1546;47.208;9.038;2023-03-31T10:30:17;9.43;;;3.97;;
3070;SDS011;1546;47.208;9.038;2023-03-31T10:32:48;8.90;;;4.93;;
3070;SDS011;1546;47.208;9.038;2023-03-31T10:35:20;7.25;;;3.78;;
3070;SDS011;1546;47.208;9.038;2023-03-31T10:37:50;7.43;;;4.07;;
3070;SDS011;1546;47.208;9.038;2023-03-31T10:40:23;8.48;;;3.70;;
3070;SDS011;1546;47.208;9.038;2023-03-31T10:42:58;8.27;;;3.88;;
3070;SDS011;1546;47.208;9.038;2023-03-31T10:45:30;8.13;;;3.97;;
3070;SDS011;1546;47.208;9.038;2023-03-31T10:48:03;8.95;;;4.30;;
3070;SDS011;1546;47.208;9.038;2023-03-31T10:50:32;6.15;;;3.45;;
3070;SDS011;1546;47.208;9.038;2023-03-31T10:53:02;9.27;;;4.32;;
3070;SDS011;1546;47.208;9.038;2023-03-31T10:55:32;7.82;;;5.03;;
3070;SDS011;1546;47.208;9.038;2023-03-31T10:58:04;6.85;;;3.92;;
3070;SDS011;1546;47.208;9.038;2023-03-31T11:00:43;6.05;;;3.60;;
3070;SDS011;1546;47.208;9.038;2023-03-31T11:06:24;6.88;;;4.10;;
3070;SDS011;1546;47.208;9.038;2023-03-31T11:08:59;6.20;;;3.58;;
3070;SDS011;1546;47.208;9.038;2023-03-31T11:11:44;6.55;;;4.05;;
3070;SDS011;1546;47.208;9.038;2023-03-31T11:14:23;6.60;;;4.18;;
3070;SDS011;1546;47.208;9.038;2023-03-31T11:17:00;6.30;;;3.60;;
3070;SDS011;1546;47.208;9.038;2023-03-31T11:19:37;5.85;;;3.58;;
3070;SDS011;1546;47.208;9.038;2023-03-31T11:22:17;6.05;;;3.28;;
3070;SDS011;1546;47.208;9.038;2023-03-31T11:25:03;6.13;;;2.50;;
3070;SDS011;1546;47.208;9.038;2023-03-31T11:27:42;6.97;;;3.47;;
3070;SDS011;1546;47.208;9.038;2023-03-31T11:30:23;10.27;;;3.72;;
3070;SDS011;1546;47.208;9.038;2023-03-31T11:32:57;6.60;;;3.45;;
3070;SDS011;1546;47.208;9.038;2023-03-31T11:35:42;6.72;;;3.50;;
3070;SDS011;1546;47.208;9.038;2023-03-31T11:38:26;6.95;;;3.70;;
3070;SDS011;1546;47.208;9.038;2023-03-31T11:41:02;6.72;;;3.33;;
3070;SDS011;1546;47.208;9.038;2023-03-31T11:43:34;6.03;;;3.53;;
3070;SDS011;1546;47.208;9.038;2023-03-31T11:46:03;7.38;;;3.20;;
3070;SDS011;1546;47.208;9.038;2023-03-31T11:48:39;9.38;;;3.85;;
3070;SDS011;1546;47.208;9.038;2023-03-31T11:51:11;7.93;;;3.35;;
3070;SDS011;1546;47.208;9.038;2023-03-31T11:53:42;6.40;;;3.30;;
3070;SDS011;1546;47.208;9.038;2023-03-31T11:56:12;5.20;;;2.90;;
3070;SDS011;1546;47.208;9.038;2023-03-31T11:58:40;8.90;;;3.42;;
3070;SDS011;1546;47.208;9.038;2023-03-31T12:01:14;8.82;;;4.05;;
3070;SDS011;1546;47.208;9.038;2023-03-31T12:03:50;7.47;;;4.30;;
3070;SDS011;1546;47.208;9.038;2023-03-31T12:06:23;7.70;;;3.53;;
3070;SDS011;1546;47.208;9.038;2023-03-31T12:09:00;7.57;;;4.22;;
3070;SDS011;1546;47.208;9.038;2023-03-31T12:11:34;6.45;;;3.30;;
3070;SDS011;1546;47.208;9.038;2023-03-31T12:14:08;6.78;;;3.47;;
3070;SDS011;1546;47.208;9.038;2023-03-31T12:16:44;6.63;;;3.28;;
3070;SDS011;1546;47.208;9.038;2023-03-31T12:19:14;7.93;;;3.83;;
3070;SDS011;1546;47.208;9.038;2023-03-31T12:21:47;5.82;;;3.45;;
3070;SDS011;1546;47.208;9.038;2023-03-31T12:24:18;5.60;;;3.60;;
3070;SDS011;1546;47.208;9.038;2023-03-31T12:26:48;7.78;;;2.95;;
3070;SDS011;1546;47.208;9.038;2023-03-31T12:29:24;6.17;;;3.80;;
3070;SDS011;1546;47.208;9.038;2023-03-31T12:31:55;6.50;;;3.50;;
3070;SDS011;1546;47.208;9.038;2023-03-31T12:34:26;10.23;;;3.35;;
3070;SDS011;1546;47.208;9.038;2023-03-31T12:39:54;7.40;;;3.43;;
3070;SDS011;1546;47.208;9.038;2023-03-31T12:42:38;6.67;;;3.00;;
3070;SDS011;1546;47.208;9.038;2023-03-31T12:45:17;5.78;;;3.03;;
3070;SDS011;1546;47.208;9.038;2023-03-31T12:53:53;6.57;;;2.70;;
3070;SDS011;1546;47.208;9.038;2023-03-31T12:59:36;5.07;;;2.63;;
3070;SDS011;1546;47.208;9.038;2023-03-31T13:02:16;4.60;;;2.13;;
3070;SDS011;1546;47.208;9.038;2023-03-31T13:04:47;6.07;;;2.08;;
3070;SDS011;1546;47.208;9.038;2023-03-31T13:12:59;5.55;;;2.42;;
3070;SDS011;1546;47.208;9.038;2023-03-31T13:15:29;4.57;;;1.67;;
3070;SDS011;1546;47.208;9.038;2023-03-31T13:17:57;8.27;;;2.60;;
3070;SDS011;1546;47.208;9.038;2023-03-31T13:20:34;6.65;;;3.00;;
3070;SDS011;1546;47.208;9.038;2023-03-31T13:23:05;6.15;;;1.90;;
3070;SDS011;1546;47.208;9.038;2023-03-31T13:25:42;7.88;;;2.20;;
3070;SDS011;1546;47.208;9.038;2023-03-31T13:31:08;6.60;;;2.25;;
3070;SDS011;1546;47.208;9.038;2023-03-31T13:33:42;6.55;;;3.47;;
3070;SDS011;1546;47.208;9.038;2023-03-31T13:36:18;4.75;;;2.55;;
3070;SDS011;1546;47.208;9.038;2023-03-31T13:39:10;7.90;;;3.17;;
3070;SDS011;1546;47.208;9.038;2023-03-31T13:41:52;4.63;;;2.00;;
3070;SDS011;1546;47.208;9.038;2023-03-31T13:44:42;7.55;;;2.30;;
3070;SDS011;1546;47.208;9.038;2023-03-31T13:50:33;6.15;;;1.85;;
3070;SDS011;1546;47.208;9.038;2023-03-31T13:56:16;3.55;;;1.27;;
3070;SDS011;1546;47.208;9.038;2023-03-31T13:59:04;4.38;;;0.77;;
3070;SDS011;1546;47.208;9.038;2023-03-31T14:05:05;3.30;;;0.90;;
3070;SDS011;1546;47.208;9.038;2023-03-31T14:07:47;3.10;;;1.00;;
3070;SDS011;1546;47.208;9.038;2023-03-31T14:10:22;3.95;;;1.10;;
3070;SDS011;1546;47.208;9.038;2023-03-31T14:13:02;3.60;;;1.50;;
3070;SDS011;1546;47.208;9.038;2023-03-31T14:15:30;5.35;;;1.40;;
3070;SDS011;1546;47.208;9.038;2023-03-31T14:17:59;2.80;;;0.70;;
3070;SDS011;1546;47.208;9.038;2023-03-31T14:20:28;4.30;;;0.80;;
3070;SDS011;1546;47.208;9.038;2023-03-31T14:23:09;4.72;;;0.80;;
3070;SDS011;1546;47.208;9.038;2023-03-31T14:25:45;3.25;;;0.60;;
3070;SDS011;1546;47.208;9.038;2023-03-31T14:28:23;4.28;;;0.82;;
3070;SDS011;1546;47.208;9.038;2023-03-31T14:31:18;2.90;;;0.60;;
3070;SDS011;1546;47.208;9.038;2023-03-31T14:34:05;3.65;;;0.90;;
3070;SDS011;1546;47.208;9.038;2023-03-31T14:37:01;3.08;;;0.60;;
3070;SDS011;1546;47.208;9.038;2023-03-31T14:39:32;2.92;;;0.60;;
3070;SDS011;1546;47.208;9.038;2023-03-31T14:42:02;4.85;;;1.13;;
3070;SDS011;1546;47.208;9.038;2023-03-31T14:44:33;4.57;;;0.70;;
3070;SDS011;1546;47.208;9.038;2023-03-31T14:47:01;5.30;;;0.70;;
3070;SDS011;1546;47.208;9.038;2023-03-31T14:49:28;4.70;;;0.77;;
3070;SDS011;1546;47.208;9.038;2023-03-31T14:52:01;4.40;;;0.80;;
3070;SDS011;1546;47.208;9.038;2023-03-31T14:54:37;3.60;;;0.82;;
3070;SDS011;1546;47.208;9.038;2023-03-31T14:57:05;6.65;;;0.70;;
3070;SDS011;1546;47.208;9.038;2023-03-31T14:59:34;3.47;;;0.70;;
3070;SDS011;1546;47.208;9.038;2023-03-31T15:02:02;3.80;;;0.60;;
3070;SDS011;1546;47.208;9.038;2023-03-31T15:04:38;3.10;;;0.70;;
3070;SDS011;1546;47.208;9.038;2023-03-31T15:07:09;5.97;;;1.00;;
3070;SDS011;1546;47.208;9.038;2023-03-31T15:09:36;3.53;;;0.85;;
3070;SDS011;1546;47.208;9.038;2023-03-31T15:12:05;3.53;;;0.70;;
3070;SDS011;1546;47.208;9.038;2023-03-31T15:14:38;7.32;;;0.90;;
3070;SDS011;1546;47.208;9.038;2023-03-31T15:17:15;3.00;;;0.60;;
3070;SDS011;1546;47.208;9.038;2023-03-31T15:19:51;3.70;;;0.85;;
3070;SDS011;1546;47.208;9.038;2023-03-31T15:22:20;6.82;;;1.05;;
3070;SDS011;1546;47.208;9.038;2023-03-31T15:24:49;3.60;;;0.85;;
3070;SDS011;1546;47.208;9.038;2023-03-31T15:27:17;4.90;;;1.35;;
3070;SDS011;1546;47.208;9.038;2023-03-31T15:29:53;6.68;;;0.90;;
3070;SDS011;1546;47.208;9.038;2023-03-31T15:32:24;3.95;;;1.05;;
3070;SDS011;1546;47.208;9.038;2023-03-31T15:34:52;3.20;;;0.90;;
3070;SDS011;1546;47.208;9.038;2023-03-31T15:37:20;3.00;;;0.60;;
3070;SDS011;1546;47.208;9.038;2023-03-31T15:39:49;4.28;;;0.80;;
3070;SDS011;1546;47.208;9.038;2023-03-31T15:42:16;4.13;;;0.70;;
3070;SDS011;1546;47.208;9.038;2023-03-31T15:44:44;6.40;;;1.02;;
3070;SDS011;1546;47.208;9.038;2023-03-31T15:47:15;4.10;;;0.80;;
3070;SDS011;1546;47.208;9.038;2023-03-31T15:49:46;4.10;;;0.80;;
3070;SDS011;1546;47.208;9.038;2023-03-31T15:52:24;3.95;;;1.30;;
3070;SDS011;1546;47.208;9.038;2023-03-31T15:54:53;8.07;;;0.90;;
3070;SDS011;1546;47.208;9.038;2023-03-31T15:57:20;5.88;;;1.35;;
3070;SDS011;1546;47.208;9.038;2023-03-31T15:59:57;5.75;;;1.15;;
3070;SDS011;1546;47.208;9.038;2023-03-31T16:02:26;3.42;;;0.85;;
3070;SDS011;1546;47.208;9.038;2023-03-31T16:05:04;4.20;;;0.75;;
3070;SDS011;1546;47.208;9.038;2023-03-31T16:07:34;5.32;;;1.67;;
3070;SDS011;1546;47.208;9.038;2023-03-31T16:10:02;11.43;;;1.40;;
3070;SDS011;1546;47.208;9.038;2023-03-31T16:12:33;5.65;;;1.10;;
3070;SDS011;1546;47.208;9.038;2023-03-31T16:15:04;4.32;;;1.00;;
3070;SDS011;1546;47.208;9.038;2023-03-31T16:17:37;6.00;;;1.40;;
3070;SDS011;1546;47.208;9.038;2023-03-31T16:20:07;3.20;;;1.00;;
3070;SDS011;1546;47.208;9.038;2023-03-31T16:22:38;3.50;;;1.10;;